createdAt,value
2023-01-23T00:01:27.957Z,102251.96
2023-01-23T00:03:56.045Z,102254.74
2023-01-23T00:06:23.936Z,102252.18
2023-01-23T00:08:51.283Z,102251.23
2023-01-23T00:11:23.483Z,102252.02
2023-01-23T00:13:51.232Z,102251.73
2023-01-23T00:16:20.304Z,102250.58
2023-01-23T00:18:48.696Z,102257.59
2023-01-23T00:21:20.741Z,102262.02
2023-01-23T00:23:53.204Z,102266.68
2023-01-23T00:26:28.866Z,102265.17
2023-01-23T00:28:59.277Z,102272.56
2023-01-23T00:31:33.913Z,102271.47
2023-01-23T00:34:09.320Z,102274.23
2023-01-23T00:36:40.705Z,102271.77
2023-01-23T00:39:20.860Z,102276.33
2023-01-23T00:41:51.228Z,102272.50
2023-01-23T00:44:21.871Z,102267.15
2023-01-23T00:46:52.826Z,102268.41
2023-01-23T00:49:24.668Z,102265.44
2023-01-23T00:51:56.851Z,102266.36
2023-01-23T00:54:26.857Z,102267.70
2023-01-23T00:56:57.832Z,102260.81
2023-01-23T00:59:28.829Z,102262.64
2023-01-23T01:01:59.825Z,102262.04
2023-01-23T01:04:30.954Z,102253.07
2023-01-23T01:07:02.798Z,102261.11
2023-01-23T01:09:33.929Z,102258.60
2023-01-23T01:12:04.304Z,102261.44
2023-01-23T01:14:34.842Z,102263.92
2023-01-23T01:24:30.322Z,102262.71
2023-01-23T01:26:57.476Z,102263.66
2023-01-23T01:29:24.618Z,102268.45
2023-01-23T01:31:51.828Z,102269.88
2023-01-23T01:34:20.681Z,102265.92
2023-01-23T01:36:49.445Z,102261.95
2023-01-23T01:39:16.699Z,102265.73
2023-01-23T01:41:43.949Z,102263.63
2023-01-23T01:44:18.888Z,102256.55
2023-01-23T01:46:47.119Z,102261.54
2023-01-23T01:49:20.041Z,102258.28
2023-01-23T01:51:53.552Z,102258.79
2023-01-23T01:54:29.292Z,102255.97
2023-01-23T01:57:01.288Z,102260.23
2023-01-23T01:59:31.292Z,102263.10
2023-01-23T02:02:05.330Z,102262.39
2023-01-23T02:04:37.351Z,102261.19
2023-01-23T02:07:14.940Z,102256.14
2023-01-23T02:09:42.603Z,102247.98
2023-01-23T02:12:09.752Z,102254.34
2023-01-23T02:14:36.908Z,102253.25
2023-01-23T02:17:04.368Z,102249.67
2023-01-23T02:19:44.225Z,102261.44
2023-01-23T02:22:18.829Z,102260.69
2023-01-23T02:25:11.681Z,102253.14
2023-01-23T02:27:38.945Z,102254.50
2023-01-23T02:30:08.142Z,102254.64
2023-01-23T02:32:38.248Z,102257.45
2023-01-23T02:35:10.884Z,102257.73
2023-01-23T02:37:38.083Z,102262.33
2023-01-23T02:40:06.985Z,102256.75
2023-01-23T02:42:34.738Z,102259.80
2023-01-23T02:45:02.408Z,102254.22
2023-01-23T02:47:29.900Z,102260.98
2023-01-23T02:49:57.529Z,102256.89
2023-01-23T02:52:24.970Z,102263.57
2023-01-23T02:54:52.227Z,102261.79
2023-01-23T02:57:19.471Z,102265.27
2023-01-23T03:00:05.279Z,102271.18
2023-01-23T03:02:34.968Z,102268.49
2023-01-23T03:05:02.121Z,102272.39
2023-01-23T03:07:29.473Z,102275.58
2023-01-23T03:09:56.624Z,102276.48
2023-01-23T03:12:23.780Z,102273.14
2023-01-23T03:14:55.116Z,102275.05
2023-01-23T03:17:22.988Z,102268.68
2023-01-23T03:19:50.449Z,102265.73
2023-01-23T03:22:17.624Z,102266.16
2023-01-23T03:24:45.151Z,102270.08
2023-01-23T03:27:13.017Z,102273.53
2023-01-23T03:30:01.909Z,102269.19
2023-01-23T03:32:31.288Z,102273.09
2023-01-23T03:34:59.667Z,102272.48
2023-01-23T03:37:26.910Z,102266.92
2023-01-23T03:40:13.410Z,102268.70
2023-01-23T03:42:40.874Z,102267.63
2023-01-23T03:45:10.282Z,102273.41
2023-01-23T03:47:37.636Z,102275.69
2023-01-23T03:50:07.054Z,102277.17
2023-01-23T03:52:39.889Z,102279.46
2023-01-23T03:55:08.083Z,102276.47
2023-01-23T03:57:36.154Z,102284.70
2023-01-23T04:00:26.756Z,102280.19
2023-01-23T04:02:59.472Z,102281.81
2023-01-23T04:05:26.691Z,102279.86
2023-01-23T04:07:53.945Z,102273.77
2023-01-23T04:10:21.392Z,102271.46
2023-01-23T04:12:52.874Z,102278.41
2023-01-23T04:15:20.426Z,102283.52
2023-01-23T04:17:47.859Z,102277.67
2023-01-23T04:20:15.119Z,102284.08
2023-01-23T04:22:43.288Z,102285.98
2023-01-23T04:25:10.451Z,102287.35
2023-01-23T04:27:37.692Z,102296.84
2023-01-23T04:30:05.678Z,102302.83
2023-01-23T04:32:34.046Z,102307.11
2023-01-23T04:35:01.490Z,102302.68
2023-01-23T04:37:28.915Z,102315.34
2023-01-23T04:39:57.036Z,102310.77
2023-01-23T04:42:24.275Z,102311.84
2023-01-23T04:45:00.342Z,102309.19
2023-01-23T04:47:36.992Z,102323.52
2023-01-23T04:50:08.850Z,102326.11
2023-01-23T04:52:37.755Z,102326.14
2023-01-23T04:55:08.293Z,102333.83
2023-01-23T04:57:37.192Z,102335.53
2023-01-23T05:00:17.410Z,102347.95
2023-01-23T05:02:47.591Z,102343.88
2023-01-23T05:05:23.921Z,102344.00
2023-01-23T05:07:55.050Z,102353.52
2023-01-23T05:10:25.784Z,102354.23
2023-01-23T05:13:01.230Z,102359.20
2023-01-23T05:15:30.957Z,102355.19
2023-01-23T05:17:59.636Z,102359.15
2023-01-23T05:20:29.804Z,102371.98
2023-01-23T05:23:01.336Z,102376.20
2023-01-23T05:25:47.609Z,102387.89
2023-01-23T05:28:18.093Z,102393.73
2023-01-23T05:30:49.593Z,102385.48
2023-01-23T05:33:26.673Z,102387.06
2023-01-23T05:36:11.732Z,102394.31
2023-01-23T05:38:39.316Z,102392.66
2023-01-23T05:41:06.451Z,102390.22
2023-01-23T05:43:56.320Z,102399.77
2023-01-23T05:46:36.379Z,102404.59
2023-01-23T05:49:03.754Z,102406.15
2023-01-23T05:51:34.166Z,102407.86
2023-01-23T05:54:01.934Z,102409.30
2023-01-23T05:56:29.498Z,102410.70
2023-01-23T05:59:16.522Z,102409.05
2023-01-23T06:01:49.785Z,102408.36
2023-01-23T06:04:35.313Z,102409.25
2023-01-23T06:07:17.583Z,102412.83
2023-01-23T06:09:45.627Z,102410.63
2023-01-23T06:12:12.802Z,102413.30
2023-01-23T06:14:39.878Z,102411.34
2023-01-23T06:17:07.347Z,102414.44
2023-01-23T06:19:34.456Z,102421.67
2023-01-23T06:22:01.615Z,102424.31
2023-01-23T06:24:31.473Z,102423.27
2023-01-23T06:27:00.274Z,102416.76
2023-01-23T06:29:27.990Z,102425.64
2023-01-23T06:31:55.155Z,102424.54
2023-01-23T06:34:22.323Z,102425.89
2023-01-23T06:36:55.928Z,102425.20
2023-01-23T06:39:23.259Z,102424.09
2023-01-23T06:41:50.795Z,102430.48
2023-01-23T06:44:21.479Z,102425.28
2023-01-23T06:46:51.020Z,102428.06
2023-01-23T06:49:18.677Z,102425.08
2023-01-23T06:51:47.257Z,102430.84
2023-01-23T06:54:14.484Z,102435.66
2023-01-23T06:56:42.035Z,102438.89
2023-01-23T06:59:09.953Z,102437.67
2023-01-23T07:01:37.387Z,102435.42
2023-01-23T07:04:24.014Z,102439.73
2023-01-23T07:06:51.557Z,102438.73
2023-01-23T07:09:19.380Z,102440.48
2023-01-23T07:11:52.296Z,102444.52
2023-01-23T07:14:19.706Z,102447.91
2023-01-23T07:16:47.944Z,102449.06
2023-01-23T07:19:16.217Z,102455.37
2023-01-23T07:21:43.644Z,102457.90
2023-01-23T07:24:10.694Z,102462.55
2023-01-23T07:26:37.885Z,102460.92
2023-01-23T07:29:11.800Z,102467.54
2023-01-23T07:31:39.020Z,102466.54
2023-01-23T07:34:06.409Z,102472.77
2023-01-23T07:36:33.555Z,102468.53
2023-01-23T07:39:00.723Z,102471.45
2023-01-23T07:41:27.895Z,102473.21
2023-01-23T07:43:55.006Z,102481.77
2023-01-23T07:46:23.908Z,102483.27
2023-01-23T07:48:51.084Z,102489.04
2023-01-23T07:51:18.626Z,102496.14
2023-01-23T07:53:45.874Z,102493.80
2023-01-23T07:56:13.703Z,102501.13
2023-01-23T07:58:41.053Z,102497.86
2023-01-23T08:01:12.369Z,102501.08
2023-01-23T08:03:39.640Z,102498.59
2023-01-23T08:06:07.137Z,102503.52
2023-01-23T08:08:34.586Z,102505.29
2023-01-23T08:11:05.336Z,102513.25
2023-01-23T08:13:32.541Z,102511.61
2023-01-23T08:16:00.117Z,102512.70
2023-01-23T08:18:28.722Z,102509.70
2023-01-23T08:20:56.443Z,102509.64
2023-01-23T08:23:31.297Z,102511.10
2023-01-23T08:25:59.896Z,102509.24
2023-01-23T08:28:27.041Z,102511.98
2023-01-23T08:30:54.531Z,102514.10
2023-01-23T08:33:22.171Z,102513.11
2023-01-23T08:35:52.478Z,102514.36
2023-01-23T08:38:19.563Z,102515.91
2023-01-23T08:40:47.387Z,102512.85
2023-01-23T08:43:14.733Z,102509.56
2023-01-23T08:45:42.685Z,102513.88
2023-01-23T08:48:10.522Z,102513.69
2023-01-23T08:50:38.387Z,102510.55
2023-01-23T08:53:05.494Z,102513.38
2023-01-23T08:55:33.339Z,102515.27
2023-01-23T08:58:00.637Z,102510.96
2023-01-23T09:00:28.106Z,102511.98
2023-01-23T09:02:55.278Z,102515.58
2023-01-23T09:05:23.227Z,102515.95
2023-01-23T09:07:50.893Z,102518.30
2023-01-23T09:10:18.250Z,102517.23
2023-01-23T09:12:45.735Z,102519.83
2023-01-23T09:15:13.107Z,102519.83
2023-01-23T09:17:40.610Z,102523.97
2023-01-23T09:20:09.703Z,102523.06
2023-01-23T09:22:37.354Z,102523.70
2023-01-23T09:25:04.910Z,102529.33
2023-01-23T09:27:31.923Z,102525.73
2023-01-23T09:29:58.970Z,102529.65
2023-01-23T09:32:26.469Z,102528.10
2023-01-23T09:34:55.125Z,102524.99
2023-01-23T09:37:22.730Z,102525.20
2023-01-23T09:39:49.845Z,102519.39
2023-01-23T09:42:22.576Z,102520.92
2023-01-23T09:44:52.985Z,102522.57
2023-01-23T09:47:24.046Z,102518.48
2023-01-23T09:50:00.759Z,102522.45
2023-01-23T09:52:46.213Z,102521.65
2023-01-23T09:55:41.436Z,102527.53
2023-01-23T09:58:44.246Z,102526.10
2023-01-23T10:01:14.701Z,102528.13
2023-01-23T10:03:42.054Z,102526.41
2023-01-23T10:06:33.854Z,102522.80
2023-01-23T10:09:19.540Z,102525.05
2023-01-23T10:12:34.583Z,102518.32
2023-01-23T10:15:27.541Z,102513.66
2023-01-23T10:17:54.807Z,102508.58
2023-01-23T10:20:52.911Z,102516.09
2023-01-23T10:23:52.825Z,102518.02
2023-01-23T10:26:26.536Z,102522.46
2023-01-23T10:29:15.999Z,102514.83
2023-01-23T10:31:52.288Z,102516.20
2023-01-23T10:34:34.676Z,102508.22
2023-01-23T10:37:22.725Z,102500.02
2023-01-23T10:40:44.902Z,102498.83
2023-01-23T10:43:17.300Z,102505.25
2023-01-23T10:45:46.247Z,102498.20
2023-01-23T10:48:49.104Z,102498.95
2023-01-23T10:51:35.535Z,102500.66
2023-01-23T10:54:06.144Z,102493.70
2023-01-23T10:56:34.712Z,102497.48
2023-01-23T10:59:02.190Z,102492.25
2023-01-23T11:01:33.656Z,102494.84
2023-01-23T11:04:15.384Z,102494.77
2023-01-23T11:06:43.396Z,102496.58
2023-01-23T11:09:20.182Z,102488.98
2023-01-23T11:12:03.212Z,102485.88
2023-01-23T11:14:31.389Z,102489.66
2023-01-23T11:17:14.385Z,102488.94
2023-01-23T11:19:41.740Z,102488.48
2023-01-23T11:22:32.432Z,102486.88
2023-01-23T11:24:59.768Z,102491.84
2023-01-23T11:27:30.434Z,102488.53
2023-01-23T11:30:04.829Z,102482.88
2023-01-23T11:32:33.953Z,102489.21
2023-01-23T11:35:12.628Z,102487.16
2023-01-23T11:37:40.344Z,102488.89
2023-01-23T11:40:15.403Z,102492.65
2023-01-23T11:42:43.246Z,102497.19
2023-01-23T11:45:23.424Z,102496.65
2023-01-23T11:48:02.474Z,102497.48
2023-01-23T11:50:49.996Z,102493.59
2023-01-23T11:53:42.053Z,102492.75
2023-01-23T11:56:14.691Z,102491.47
2023-01-23T11:58:55.156Z,102496.23
2023-01-23T12:01:29.703Z,102495.34
2023-01-23T12:04:22.640Z,102489.04
2023-01-23T12:07:09.145Z,102492.05
2023-01-23T12:09:48.871Z,102489.30
2023-01-23T12:12:49.545Z,102497.86
2023-01-23T12:15:43.950Z,102501.25
2023-01-23T12:18:58.179Z,102505.45
2023-01-23T12:21:44.500Z,102504.20
2023-01-23T12:24:41.526Z,102503.04
2023-01-23T12:27:36.802Z,102504.66
2023-01-23T12:30:51.917Z,102503.70
2023-01-23T12:33:43.720Z,102508.17
2023-01-23T12:37:08.700Z,102509.35
2023-01-23T12:40:08.590Z,102516.16
2023-01-23T12:43:05.532Z,102514.44
2023-01-23T12:45:35.545Z,102514.45
2023-01-23T12:48:23.659Z,102518.80
2023-01-23T12:50:59.641Z,102518.55
2023-01-23T12:53:33.520Z,102517.33
2023-01-23T12:56:23.595Z,102518.34
2023-01-23T12:59:15.016Z,102516.96
2023-01-23T13:01:53.585Z,102517.36
2023-01-23T13:05:01.932Z,102518.77
2023-01-23T13:07:42.983Z,102522.36
2023-01-23T13:18:01.682Z,102520.77
2023-01-23T13:20:48.067Z,102520.73
2023-01-23T13:23:20.583Z,102521.94
2023-01-23T13:25:48.931Z,102523.88
2023-01-23T13:28:45.133Z,102519.90
2023-01-23T13:31:44.896Z,102525.70
2023-01-23T13:34:16.817Z,102525.17
2023-01-23T13:36:44.268Z,102522.41
2023-01-23T13:39:17.986Z,102513.84
2023-01-23T13:41:45.344Z,102512.79
2023-01-23T13:44:40.986Z,102516.36
2023-01-23T16:21:40.096Z,102561.63
2023-01-23T16:24:19.875Z,102562.86
2023-01-23T16:26:56.965Z,102562.43
2023-01-23T16:29:29.482Z,102560.52
2023-01-23T16:32:02.148Z,102557.96
2023-01-23T16:34:31.159Z,102562.23
2023-01-23T16:36:59.947Z,102561.79
2023-01-23T16:39:32.850Z,102563.17
2023-01-23T16:42:04.187Z,102556.48
2023-01-23T16:47:22.225Z,102553.61
2023-01-23T16:49:53.775Z,102556.12
2023-01-23T16:52:23.908Z,102558.20
2023-01-23T16:54:53.464Z,102560.30
2023-01-23T16:57:22.296Z,102556.68
2023-01-23T16:59:51.998Z,102567.53
2023-01-23T17:02:30.732Z,102568.25
2023-01-23T17:04:59.817Z,102572.02
2023-01-23T17:07:28.626Z,102570.45
2023-01-23T17:09:57.806Z,102556.55
2023-01-23T17:12:28.023Z,102563.12
2023-01-23T17:14:56.939Z,102563.13
2023-01-23T17:17:32.098Z,102559.29
2023-01-23T17:20:01.720Z,102557.72
2023-01-23T17:22:55.031Z,102557.71
2023-01-23T17:25:27.408Z,102556.40
2023-01-23T17:28:11.863Z,102557.77
2023-01-23T17:30:42.612Z,102556.06
2023-01-23T17:33:20.864Z,102559.46
2023-01-23T17:35:58.806Z,102556.99
2023-01-23T17:38:31.388Z,102555.94
2023-01-23T17:41:00.066Z,102554.85
2023-01-23T17:43:29.708Z,102556.42
2023-01-23T17:45:58.394Z,102556.23
2023-01-23T17:48:31.968Z,102554.11
2023-01-23T17:51:00.686Z,102552.21
2023-01-23T17:53:30.983Z,102553.89
2023-01-23T17:55:59.966Z,102550.48
2023-01-23T17:58:30.490Z,102548.27
2023-01-23T18:01:00.756Z,102546.52
2023-01-23T18:03:29.705Z,102545.52
2023-01-23T18:05:59.111Z,102538.59
2023-01-23T18:08:27.921Z,102542.31
2023-01-23T18:11:01.534Z,102539.90
2023-01-23T18:13:36.228Z,102537.45
2023-01-23T18:16:20.916Z,102531.77
2023-01-23T18:18:53.319Z,102529.80
2023-01-23T18:21:22.455Z,102530.15
2023-01-23T18:23:53.232Z,102529.42
2023-01-23T18:26:44.128Z,102532.42
2023-01-23T18:29:45.655Z,102535.78
2023-01-23T18:32:31.130Z,102526.05
2023-01-23T18:35:21.664Z,102529.57
2023-01-23T18:38:25.434Z,102528.73
2023-01-23T18:41:12.985Z,102524.46
2023-01-23T18:43:50.866Z,102522.27
2023-01-23T18:46:21.292Z,102525.48
2023-01-23T18:48:51.121Z,102519.66
2023-01-23T18:51:41.643Z,102523.16
2023-01-23T18:54:25.453Z,102524.92
2023-01-23T18:57:14.915Z,102527.30
2023-01-23T18:59:58.976Z,102524.66
2023-01-23T19:02:44.134Z,102529.53
2023-01-23T19:05:16.208Z,102532.61
2023-01-23T19:07:47.070Z,102524.48
2023-01-23T19:10:21.489Z,102523.04
2023-01-23T19:12:59.852Z,102525.54
2023-01-23T19:15:56.887Z,102524.50
2023-01-23T19:18:39.840Z,102525.95
2023-01-23T19:21:29.722Z,102518.52
2023-01-23T19:24:07.174Z,102516.64
2023-01-23T19:26:41.056Z,102506.71
2023-01-23T19:29:25.811Z,102507.37
2023-01-23T19:32:06.040Z,102511.34
2023-01-23T19:34:36.462Z,102507.86
2023-01-23T19:37:07.682Z,102501.08
2023-01-23T19:39:38.918Z,102502.68
2023-01-23T19:42:14.068Z,102505.61
2023-01-23T19:44:44.825Z,102504.58
2023-01-23T19:47:16.711Z,102504.48
2023-01-23T19:49:45.882Z,102506.52
2023-01-23T19:52:14.796Z,102511.17
2023-01-23T19:54:44.389Z,102516.95
2023-01-23T19:57:14.865Z,102514.46
2023-01-23T19:59:44.919Z,102516.80
2023-01-23T20:02:19.778Z,102519.35
2023-01-23T20:04:49.670Z,102516.65
2023-01-23T20:07:18.680Z,102517.24
2023-01-23T20:09:49.527Z,102514.20
2023-01-23T20:12:21.772Z,102513.73
2023-01-23T20:14:52.870Z,102512.55
2023-01-23T20:17:24.892Z,102512.36
2023-01-23T20:19:53.767Z,102510.50
2023-01-23T20:22:23.599Z,102513.90
2023-01-23T20:24:52.158Z,102513.29
2023-01-23T20:27:21.476Z,102513.84
2023-01-23T20:29:53.860Z,102517.75
2023-01-23T20:32:22.741Z,102521.58
2023-01-23T20:34:54.920Z,102522.08
2023-01-23T20:37:24.988Z,102522.46
2023-01-23T20:39:56.808Z,102520.73
2023-01-23T20:42:25.971Z,102525.65
2023-01-23T20:44:57.006Z,102522.12
2023-01-23T20:47:32.547Z,102526.53
2023-01-23T20:50:02.878Z,102525.67
2023-01-23T20:52:50.304Z,102524.86
2023-01-23T20:55:19.093Z,102524.82
2023-01-23T20:58:06.521Z,102527.86
2023-01-23T21:00:37.875Z,102532.99
2023-01-23T21:03:07.001Z,102522.39
2023-01-23T21:05:36.567Z,102531.45
2023-01-23T21:08:07.296Z,102531.38
2023-01-23T21:10:36.597Z,102535.06
2023-01-23T21:13:08.205Z,102530.83
2023-01-23T21:15:37.260Z,102536.86
2023-01-23T21:18:05.732Z,102540.98
2023-01-23T21:20:35.952Z,102539.08
2023-01-23T21:23:04.642Z,102540.95
2023-01-23T21:25:35.875Z,102539.75
2023-01-23T21:28:04.564Z,102545.84
2023-01-23T21:30:33.406Z,102546.91
2023-01-23T21:33:02.244Z,102544.63
2023-01-23T21:35:31.976Z,102547.84
2023-01-23T21:38:04.430Z,102544.25
2023-01-23T21:40:34.203Z,102545.08
2023-01-23T21:43:03.741Z,102542.76
2023-01-23T21:45:32.542Z,102540.13
2023-01-23T21:48:01.217Z,102543.01
2023-01-23T21:50:30.735Z,102542.67
2023-01-23T21:53:01.299Z,102545.27
2023-01-23T21:55:32.700Z,102546.63
2023-01-23T21:58:01.385Z,102546.00
2023-01-23T22:00:49.020Z,102548.62
2023-01-23T22:03:17.698Z,102546.60
2023-01-23T22:05:46.895Z,102545.16
2023-01-23T22:08:15.277Z,102543.16
2023-01-23T22:10:43.960Z,102543.14
2023-01-23T22:13:13.465Z,102538.96
2023-01-23T22:15:42.068Z,102535.89
2023-01-23T22:18:11.245Z,102538.22
2023-01-23T22:20:40.045Z,102536.38
2023-01-23T22:23:08.614Z,102535.77
2023-01-23T22:25:37.815Z,102535.84
2023-01-23T22:28:06.601Z,102537.79
2023-01-23T22:30:36.214Z,102529.29
2023-01-23T22:33:04.880Z,102528.58
2023-01-23T22:35:39.350Z,102530.92
2023-01-23T22:38:08.725Z,102528.89
2023-01-23T22:40:38.537Z,102528.67
2023-01-23T22:43:07.628Z,102530.27
2023-01-23T22:45:37.132Z,102533.67
2023-01-23T22:48:06.162Z,102534.48
2023-01-23T22:50:34.501Z,102537.52
2023-01-23T22:53:03.494Z,102536.99
2023-01-23T22:55:32.429Z,102534.05
2023-01-23T22:58:00.892Z,102531.95
2023-01-23T23:00:29.655Z,102535.33
2023-01-23T23:02:58.338Z,102532.81
2023-01-23T23:05:27.023Z,102535.13
2023-01-23T23:07:57.582Z,102535.42
2023-01-23T23:10:26.343Z,102537.17
2023-01-23T23:12:55.128Z,102532.67
2023-01-23T23:15:23.924Z,102527.48
2023-01-23T23:17:52.620Z,102522.38
2023-01-23T23:20:22.412Z,102522.28
2023-01-23T23:22:51.165Z,102521.00
2023-01-23T23:25:20.054Z,102525.49
2023-01-23T23:27:48.884Z,102522.04
2023-01-23T23:30:17.872Z,102523.99
2023-01-23T23:32:47.068Z,102517.55
2023-01-23T23:35:15.879Z,102518.54
2023-01-23T23:37:44.547Z,102520.98
2023-01-23T23:40:13.231Z,102522.08
2023-01-23T23:42:41.916Z,102517.85
2023-01-23T23:45:11.431Z,102519.90
2023-01-23T23:47:39.801Z,102510.83
2023-01-23T23:50:09.511Z,102512.14
2023-01-23T23:52:38.840Z,102513.56
2023-01-23T23:55:08.125Z,102516.65
2023-01-23T23:57:36.658Z,102517.61
